createdAt,value
2023-05-03T00:01:26.035Z,7.30
2023-05-03T00:03:58.591Z,10.23
2023-05-03T00:06:32.042Z,6.28
2023-05-03T00:09:04.704Z,6.57
2023-05-03T00:11:38.095Z,9.05
2023-05-03T00:14:10.700Z,3.53
2023-05-03T00:16:43.867Z,6.53
2023-05-03T00:19:30.472Z,5.75
2023-05-03T00:22:04.592Z,4.80
2023-05-03T00:24:37.308Z,4.65
2023-05-03T00:27:10.235Z,5.28
2023-05-03T00:29:42.955Z,4.68
2023-05-03T00:32:16.477Z,5.28
2023-05-03T00:34:55.470Z,6.18
2023-05-03T00:37:30.219Z,4.85
2023-05-03T00:40:03.177Z,8.15
2023-05-03T00:42:37.486Z,4.57
2023-05-03T00:45:10.545Z,8.45
2023-05-03T00:47:43.923Z,4.68
2023-05-03T00:50:16.714Z,9.20
2023-05-03T00:52:49.910Z,7.25
2023-05-03T00:55:23.231Z,6.88
2023-05-03T00:57:56.533Z,4.90
2023-05-03T01:00:35.169Z,7.45
2023-05-03T01:03:08.305Z,6.00
2023-05-03T01:05:52.067Z,6.85
2023-05-03T01:08:31.896Z,3.97
2023-05-03T01:11:11.880Z,6.25
2023-05-03T01:13:48.486Z,5.85
2023-05-03T01:16:36.495Z,5.88
2023-05-03T01:19:16.245Z,5.97
2023-05-03T01:21:51.941Z,6.20
2023-05-03T01:24:25.431Z,6.07
2023-05-03T01:26:59.714Z,6.05
2023-05-03T01:29:33.510Z,7.35
2023-05-03T01:32:11.858Z,5.03
2023-05-03T01:35:10.099Z,3.13
2023-05-03T01:37:43.424Z,3.33
2023-05-03T01:40:20.207Z,2.67
2023-05-03T01:42:54.135Z,3.80
2023-05-03T01:45:27.271Z,4.57
2023-05-03T01:48:01.079Z,5.38
2023-05-03T01:50:38.526Z,5.82
2023-05-03T01:53:12.406Z,2.80
2023-05-03T01:55:45.743Z,3.40
2023-05-03T01:58:18.412Z,6.07
2023-05-03T02:00:51.729Z,6.78
2023-05-03T02:03:24.642Z,4.25
2023-05-03T02:05:59.579Z,4.93
2023-05-03T02:08:40.170Z,5.82
2023-05-03T02:11:13.333Z,6.60
2023-05-03T02:13:48.668Z,4.25
2023-05-03T02:16:22.358Z,5.25
2023-05-03T02:18:59.852Z,6.07
2023-05-03T02:21:35.692Z,4.57
2023-05-03T02:24:12.120Z,6.72
2023-05-03T02:26:45.108Z,6.97
2023-05-03T02:29:18.608Z,5.38
2023-05-03T02:31:51.866Z,5.45
2023-05-03T02:34:24.764Z,4.32
2023-05-03T02:36:58.265Z,4.88
2023-05-03T02:39:30.943Z,6.57
2023-05-03T02:42:07.428Z,6.20
2023-05-03T02:44:40.110Z,2.38
2023-05-03T02:47:14.422Z,3.97
2023-05-03T02:49:49.518Z,4.20
2023-05-03T02:52:23.050Z,2.85
2023-05-03T02:54:55.777Z,6.68
2023-05-03T02:57:30.344Z,6.93
2023-05-03T03:00:07.509Z,3.20
2023-05-03T03:02:40.568Z,7.30
2023-05-03T03:05:13.393Z,2.88
2023-05-03T03:07:51.958Z,4.40
2023-05-03T03:10:24.883Z,4.80
2023-05-03T03:12:58.552Z,9.00
2023-05-03T03:15:43.316Z,3.22
2023-05-03T03:18:18.365Z,4.68
2023-05-03T03:20:52.304Z,10.73
2023-05-03T03:23:27.199Z,4.55
2023-05-03T03:25:59.948Z,5.80
2023-05-03T03:28:33.287Z,7.93
2023-05-03T03:31:14.956Z,8.25
2023-05-03T03:33:49.971Z,5.75
2023-05-03T03:36:26.256Z,8.32
2023-05-03T03:38:59.423Z,3.17
2023-05-03T03:41:33.547Z,4.95
2023-05-03T03:44:07.454Z,3.70
2023-05-03T03:46:40.252Z,5.00
2023-05-03T03:49:15.535Z,5.75
2023-05-03T03:51:48.200Z,5.15
2023-05-03T03:54:21.994Z,5.53
2023-05-03T03:56:56.122Z,4.20
2023-05-03T03:59:29.836Z,6.47
2023-05-03T04:02:04.713Z,7.60
2023-05-03T04:04:38.860Z,5.40
2023-05-03T04:07:12.269Z,5.47
2023-05-03T04:09:45.385Z,10.48
2023-05-03T04:12:19.912Z,7.10
2023-05-03T04:14:53.077Z,4.65
2023-05-03T04:17:25.811Z,7.18
2023-05-03T04:19:58.822Z,3.80
2023-05-03T04:22:33.977Z,11.95
2023-05-03T04:25:09.180Z,4.45
2023-05-03T04:27:41.896Z,9.57
2023-05-03T04:30:15.819Z,7.93
2023-05-03T04:32:54.626Z,3.38
2023-05-03T04:35:29.963Z,3.53
2023-05-03T04:38:04.870Z,10.60
2023-05-03T04:40:39.155Z,6.50
2023-05-03T04:43:14.500Z,8.50
2023-05-03T04:45:52.641Z,4.65
2023-05-03T04:48:28.874Z,3.97
2023-05-03T04:51:01.918Z,6.80
2023-05-03T04:53:35.199Z,5.85
2023-05-03T04:56:14.153Z,18.33
2023-05-03T04:58:47.252Z,3.63
2023-05-03T05:01:28.543Z,3.35
2023-05-03T05:04:06.142Z,4.80
2023-05-03T05:06:45.508Z,16.67
2023-05-03T05:09:24.425Z,6.97
2023-05-03T05:11:59.533Z,4.63
2023-05-03T05:14:38.641Z,5.55
2023-05-03T05:17:14.103Z,5.68
2023-05-03T05:19:47.918Z,5.18
2023-05-03T05:22:21.719Z,5.55
2023-05-03T05:25:00.490Z,6.15
2023-05-03T05:27:34.942Z,2.83
2023-05-03T05:30:09.564Z,5.47
2023-05-03T05:32:45.576Z,7.32
2023-05-03T05:35:19.713Z,3.45
2023-05-03T05:37:53.062Z,7.35
2023-05-03T05:40:25.747Z,5.13
2023-05-03T05:43:02.028Z,3.35
2023-05-03T05:45:36.923Z,7.78
2023-05-03T05:48:11.321Z,3.50
2023-05-03T05:50:44.043Z,3.97
2023-05-03T05:53:19.195Z,5.22
2023-05-03T05:55:59.147Z,8.60
2023-05-03T05:58:34.180Z,7.75
2023-05-03T06:01:07.642Z,7.10
2023-05-03T06:03:43.510Z,5.35
2023-05-03T06:06:16.390Z,14.95
2023-05-03T06:08:50.336Z,3.00
2023-05-03T06:11:23.013Z,3.08
2023-05-03T06:13:57.816Z,12.38
2023-05-03T06:16:31.130Z,4.20
2023-05-03T06:19:05.491Z,4.05
2023-05-03T06:21:38.156Z,6.72
2023-05-03T06:24:11.490Z,7.93
2023-05-03T06:26:44.951Z,9.65
2023-05-03T06:29:18.738Z,9.85
2023-05-03T06:31:51.904Z,4.53
2023-05-03T06:34:25.792Z,9.93
2023-05-03T06:37:00.120Z,3.22
2023-05-03T06:39:33.233Z,15.63
2023-05-03T06:42:06.050Z,9.52
2023-05-03T06:44:43.375Z,8.70
2023-05-03T06:47:16.041Z,4.70
2023-05-03T06:49:49.220Z,5.93
2023-05-03T06:52:22.299Z,7.63
2023-05-03T06:54:55.371Z,6.47
2023-05-03T06:57:28.892Z,8.38
2023-05-03T07:00:02.424Z,4.63
2023-05-03T07:02:35.689Z,3.63
2023-05-03T07:05:09.295Z,5.80
2023-05-03T07:07:41.941Z,18.48
2023-05-03T07:10:14.954Z,6.50
2023-05-03T07:12:47.915Z,8.73
2023-05-03T07:15:21.166Z,4.20
2023-05-03T07:17:53.929Z,5.88
2023-05-03T07:20:27.311Z,9.25
2023-05-03T07:23:02.051Z,9.05
2023-05-03T07:25:35.071Z,8.65
2023-05-03T07:28:07.816Z,6.85
2023-05-03T07:30:41.358Z,5.63
2023-05-03T07:33:14.190Z,8.75
2023-05-03T07:35:47.812Z,11.23
2023-05-03T07:38:20.531Z,3.40
2023-05-03T07:40:53.518Z,4.03
2023-05-03T07:43:26.201Z,8.15
2023-05-03T07:45:59.286Z,11.52
2023-05-03T07:48:32.424Z,3.88
2023-05-03T07:51:05.896Z,10.45
2023-05-03T07:53:40.762Z,7.68
2023-05-03T07:56:13.793Z,7.93
2023-05-03T07:58:48.661Z,7.07
2023-05-03T08:01:24.871Z,8.02
2023-05-03T08:03:58.937Z,4.28
2023-05-03T08:06:32.588Z,7.93
2023-05-03T08:09:05.624Z,3.03
2023-05-03T08:11:38.846Z,4.75
2023-05-03T08:14:12.380Z,4.70
2023-05-03T08:16:45.652Z,5.28
2023-05-03T08:19:18.475Z,6.32
2023-05-03T08:21:54.677Z,6.60
2023-05-03T08:24:27.426Z,5.32
2023-05-03T08:27:00.356Z,7.45
2023-05-03T08:29:38.046Z,7.20
2023-05-03T08:32:11.249Z,9.38
2023-05-03T08:34:43.894Z,8.35
2023-05-03T08:37:16.857Z,7.60
2023-05-03T08:39:49.496Z,7.22
2023-05-03T08:42:23.944Z,3.97
2023-05-03T08:44:58.336Z,7.75
2023-05-03T08:47:36.228Z,6.15
2023-05-03T08:50:10.462Z,3.72
2023-05-03T08:52:43.902Z,15.20
2023-05-03T08:55:17.385Z,6.13
2023-05-03T08:57:50.361Z,6.10
2023-05-03T09:00:28.575Z,10.02
2023-05-03T09:03:01.642Z,5.18
2023-05-03T09:05:35.256Z,6.28
2023-05-03T09:08:12.697Z,8.95
2023-05-03T09:10:45.701Z,4.15
2023-05-03T09:13:18.770Z,8.68
2023-05-03T09:15:55.595Z,4.47
2023-05-03T09:18:31.061Z,7.05
2023-05-03T09:21:03.768Z,2.58
2023-05-03T09:23:37.053Z,7.07
2023-05-03T09:26:09.635Z,4.65
2023-05-03T09:28:45.614Z,5.82
2023-05-03T09:31:18.449Z,6.95
2023-05-03T09:33:52.312Z,5.50
2023-05-03T09:36:25.564Z,3.67
2023-05-03T09:38:58.967Z,5.13
2023-05-03T09:41:32.301Z,6.60
2023-05-03T09:44:05.360Z,8.38
2023-05-03T09:46:37.968Z,5.82
2023-05-03T09:49:11.202Z,16.02
2023-05-03T09:51:44.614Z,5.10
2023-05-03T09:54:17.704Z,4.53
2023-05-03T09:56:53.026Z,5.72
2023-05-03T09:59:34.735Z,3.25
2023-05-03T10:02:08.754Z,4.20
2023-05-03T10:04:48.214Z,9.38
2023-05-03T10:07:22.379Z,4.47
2023-05-03T10:09:58.477Z,11.65
2023-05-03T10:12:31.205Z,7.22
2023-05-03T10:15:06.653Z,2.90
2023-05-03T10:20:32.586Z,4.28
2023-05-03T10:23:05.293Z,4.10
2023-05-03T10:25:39.500Z,4.15
2023-05-03T10:28:12.110Z,6.38
2023-05-03T10:30:45.120Z,4.57
2023-05-03T10:33:18.064Z,5.20
2023-05-03T10:35:52.820Z,4.60
2023-05-03T10:38:26.711Z,6.32
2023-05-03T10:41:01.847Z,2.97
2023-05-03T10:43:34.475Z,6.40
2023-05-03T10:46:12.601Z,6.15
2023-05-03T10:48:46.538Z,5.65
2023-05-03T10:51:37.690Z,5.25
2023-05-03T10:54:10.326Z,5.15
2023-05-03T10:56:53.051Z,12.93
2023-05-03T10:59:26.396Z,11.23
2023-05-03T11:01:59.801Z,3.67
2023-05-03T11:04:42.311Z,2.53
2023-05-03T11:07:24.860Z,5.13
2023-05-03T11:09:58.004Z,3.97
2023-05-03T11:12:31.172Z,7.53
2023-05-03T11:15:04.164Z,3.65
2023-05-03T11:17:38.334Z,2.00
2023-05-03T11:20:12.017Z,6.95
2023-05-03T11:22:44.965Z,5.97
2023-05-03T11:25:17.678Z,2.72
2023-05-03T11:27:50.878Z,4.20
2023-05-03T11:30:23.666Z,4.18
2023-05-03T11:32:56.998Z,4.43
2023-05-03T11:35:30.879Z,4.97
2023-05-03T11:38:04.007Z,3.50
2023-05-03T11:40:37.431Z,1.60
2023-05-03T11:43:10.498Z,2.83
2023-05-03T11:45:44.621Z,4.40
2023-05-03T11:48:18.079Z,2.72
2023-05-03T11:50:56.971Z,6.43
2023-05-03T11:53:30.097Z,5.68
2023-05-03T11:56:03.675Z,2.67
2023-05-03T11:58:36.676Z,6.45
2023-05-03T12:01:09.393Z,2.88
2023-05-03T12:03:42.775Z,3.00
2023-05-03T12:06:17.947Z,3.65
2023-05-03T12:08:52.138Z,4.53
2023-05-03T12:11:27.113Z,2.92
2023-05-03T12:14:02.497Z,2.85
2023-05-03T12:16:52.400Z,4.80
2023-05-03T12:19:32.332Z,5.22
2023-05-03T12:22:25.622Z,5.68
2023-05-03T12:24:59.772Z,4.63
2023-05-03T12:27:32.863Z,6.65
2023-05-03T12:30:09.183Z,4.90
2023-05-03T12:32:44.679Z,2.35
2023-05-03T12:35:20.173Z,5.18
2023-05-03T12:40:34.035Z,2.63
2023-05-03T12:43:07.876Z,4.53
2023-05-03T12:45:41.570Z,11.07
2023-05-03T12:48:14.551Z,4.75
2023-05-03T12:50:51.486Z,4.00
2023-05-03T12:53:26.191Z,2.05
2023-05-03T12:55:59.610Z,3.67
2023-05-03T12:58:56.692Z,2.53
2023-05-03T13:06:42.152Z,2.20
2023-05-03T13:09:21.156Z,4.35
2023-05-03T13:11:55.262Z,4.63
2023-05-03T13:14:28.978Z,2.67
2023-05-03T13:17:03.332Z,9.00
2023-05-03T13:19:39.318Z,2.38
2023-05-03T13:22:12.667Z,4.10
2023-05-03T13:24:46.595Z,3.63
2023-05-03T13:27:19.550Z,4.13
2023-05-03T13:29:52.208Z,7.05
2023-05-03T13:32:25.424Z,4.45
2023-05-03T13:34:58.113Z,5.75
2023-05-03T13:37:31.151Z,5.72
2023-05-03T13:40:04.249Z,4.30
2023-05-03T13:42:37.629Z,5.30
2023-05-03T13:45:10.547Z,5.80
2023-05-03T13:48:05.099Z,4.45
2023-05-03T13:50:36.482Z,11.25
2023-05-03T13:53:09.721Z,2.40
2023-05-03T13:55:42.304Z,2.95
2023-05-03T13:58:15.269Z,3.00
2023-05-03T14:00:47.899Z,2.03
2023-05-03T14:03:21.126Z,4.60
2023-05-03T14:05:53.867Z,4.22
2023-05-03T14:08:26.937Z,5.65
2023-05-03T14:10:59.781Z,3.45
2023-05-03T14:13:43.632Z,3.17
2023-05-03T14:19:02.628Z,3.38
2023-05-03T14:21:35.207Z,4.85
2023-05-03T14:24:08.778Z,7.60
2023-05-03T14:26:41.604Z,2.42
2023-05-03T14:29:14.640Z,3.53
2023-05-03T14:31:47.482Z,3.17
2023-05-03T14:34:20.485Z,1.88
2023-05-03T14:36:53.132Z,3.10
2023-05-03T14:39:26.080Z,6.30
2023-05-03T14:41:59.219Z,3.47
2023-05-03T14:44:32.613Z,2.97
2023-05-03T14:47:06.603Z,2.28
2023-05-03T14:49:42.373Z,4.22
2023-05-03T14:52:14.972Z,4.70
2023-05-03T14:54:48.313Z,4.55
2023-05-03T14:57:21.390Z,5.45
2023-05-03T14:59:54.423Z,4.72
2023-05-03T15:02:27.523Z,3.92
2023-05-03T15:05:01.635Z,2.17
2023-05-03T15:07:34.859Z,3.13
2023-05-03T15:10:08.523Z,4.50
2023-05-03T15:12:42.582Z,4.88
2023-05-03T15:15:16.196Z,2.58
2023-05-03T15:17:48.853Z,2.95
2023-05-03T15:20:22.991Z,2.85
2023-05-03T15:22:55.572Z,3.33
2023-05-03T15:25:28.602Z,5.13
2023-05-03T15:28:04.050Z,5.05
2023-05-03T15:30:37.764Z,5.18
2023-05-03T15:33:12.385Z,1.80
2023-05-03T15:35:45.345Z,4.63
2023-05-03T15:38:18.531Z,4.05
2023-05-03T15:40:52.043Z,3.95
2023-05-03T15:43:24.866Z,3.17
2023-05-03T15:45:57.900Z,3.13
2023-05-03T15:48:31.129Z,5.32
2023-05-03T15:51:04.644Z,5.78
2023-05-03T15:53:37.258Z,2.10
2023-05-03T15:56:12.206Z,2.72
2023-05-03T15:58:44.907Z,1.77
2023-05-03T16:01:19.062Z,1.98
2023-05-03T16:03:52.366Z,2.65
2023-05-03T16:06:25.508Z,1.95
2023-05-03T16:08:58.097Z,10.25
2023-05-03T16:11:31.574Z,3.50
2023-05-03T16:14:09.658Z,5.32
2023-05-03T16:16:42.859Z,3.92
2023-05-03T16:19:15.531Z,3.15
2023-05-03T16:21:48.563Z,1.83
2023-05-03T16:24:21.936Z,3.65
2023-05-03T16:26:55.162Z,27.35
2023-05-03T16:29:28.093Z,34.05
2023-05-03T16:32:01.866Z,4.40
2023-05-03T16:34:35.473Z,1.95
2023-05-03T16:37:09.316Z,5.32
2023-05-03T16:39:42.012Z,2.42
2023-05-03T16:42:15.131Z,2.47
2023-05-03T16:44:47.842Z,5.18
2023-05-03T16:47:21.855Z,3.85
2023-05-03T16:49:54.578Z,6.90
2023-05-03T16:52:29.040Z,4.25
2023-05-03T16:55:01.861Z,2.95
2023-05-03T16:57:34.885Z,5.75
2023-05-03T17:00:11.706Z,7.13
2023-05-03T17:02:45.322Z,5.28
2023-05-03T17:05:20.698Z,6.13
2023-05-03T17:07:53.802Z,6.20
2023-05-03T17:10:27.295Z,4.75
2023-05-03T17:13:01.557Z,3.35
2023-05-03T17:15:34.284Z,4.32
2023-05-03T17:18:07.334Z,6.53
2023-05-03T17:20:40.114Z,2.85
2023-05-03T17:23:13.542Z,2.45
2023-05-03T17:25:46.320Z,2.13
2023-05-03T17:28:19.296Z,2.53
2023-05-03T17:30:53.998Z,3.78
2023-05-03T17:33:27.334Z,2.13
2023-05-03T17:36:05.083Z,4.60
2023-05-03T17:38:38.477Z,2.10
2023-05-03T17:41:11.896Z,2.33
2023-05-03T17:43:45.123Z,5.07
2023-05-03T17:46:18.150Z,4.40
2023-05-03T17:48:52.510Z,3.95
2023-05-03T17:51:25.181Z,4.13
2023-05-03T17:53:58.165Z,2.08
2023-05-03T17:56:30.994Z,3.55
2023-05-03T17:59:04.608Z,5.13
2023-05-03T18:01:37.834Z,5.20
2023-05-03T18:04:11.356Z,5.65
2023-05-03T18:06:43.921Z,5.25
2023-05-03T18:09:17.011Z,2.55
2023-05-03T18:11:49.734Z,5.25
2023-05-03T18:14:22.778Z,5.93
2023-05-03T18:16:55.491Z,5.03
2023-05-03T18:19:28.748Z,5.68
2023-05-03T18:22:01.487Z,6.63
2023-05-03T18:24:34.429Z,2.85
2023-05-03T18:27:07.036Z,6.22
2023-05-03T18:29:40.395Z,2.58
2023-05-03T18:32:13.145Z,5.30
2023-05-03T18:34:46.284Z,2.67
2023-05-03T18:37:19.065Z,4.13
2023-05-03T18:39:52.070Z,4.07
2023-05-03T18:42:24.789Z,2.78
2023-05-03T18:44:58.219Z,6.20
2023-05-03T18:47:31.108Z,4.68
2023-05-03T18:50:04.964Z,8.93
2023-05-03T18:52:37.809Z,8.73
2023-05-03T18:55:10.822Z,2.50
2023-05-03T18:57:43.518Z,3.90
2023-05-03T19:00:18.838Z,6.70
2023-05-03T19:02:51.579Z,3.35
2023-05-03T19:05:24.896Z,6.28
2023-05-03T19:07:57.696Z,5.72
2023-05-03T19:10:30.789Z,5.60
2023-05-03T19:13:03.553Z,9.73
2023-05-03T19:15:36.863Z,7.60
2023-05-03T19:18:10.248Z,7.13
2023-05-03T19:20:43.420Z,13.70
2023-05-03T19:23:16.144Z,11.98
2023-05-03T19:25:49.874Z,12.43
2023-05-03T19:28:22.677Z,10.93
2023-05-03T19:30:55.915Z,7.10
2023-05-03T19:33:28.608Z,10.27
2023-05-03T19:36:07.007Z,8.38
2023-05-03T19:38:39.670Z,7.63
2023-05-03T19:41:13.081Z,5.43
2023-05-03T19:43:45.693Z,4.60
2023-05-03T19:46:20.127Z,3.92
2023-05-03T19:48:52.750Z,14.23
2023-05-03T19:51:25.954Z,11.88
2023-05-03T19:54:01.419Z,27.45
2023-05-03T19:56:34.658Z,5.40
2023-05-03T19:59:07.372Z,13.02
2023-05-03T20:01:40.542Z,18.02
2023-05-03T20:04:13.296Z,12.32
2023-05-03T20:06:46.344Z,8.98
2023-05-03T20:09:21.525Z,12.20
2023-05-03T20:11:59.176Z,19.40
2023-05-03T20:14:32.868Z,16.85
2023-05-03T20:17:06.135Z,11.90
2023-05-03T20:19:39.467Z,11.13
2023-05-03T20:22:12.763Z,20.63
2023-05-03T20:24:45.468Z,11.50
2023-05-03T20:27:18.445Z,15.45
2023-05-03T20:29:51.068Z,8.18
2023-05-03T20:32:24.080Z,14.10
2023-05-03T20:34:56.759Z,9.45
2023-05-03T20:37:30.003Z,13.60
2023-05-03T20:40:02.856Z,16.10
2023-05-03T20:42:35.976Z,9.15
2023-05-03T20:45:08.909Z,15.45
2023-05-03T20:47:41.882Z,25.13
2023-05-03T20:50:14.552Z,12.98
2023-05-03T20:52:48.268Z,25.48
2023-05-03T20:55:21.304Z,123.75
2023-05-03T20:57:54.225Z,28.45
2023-05-03T21:00:27.563Z,14.50
2023-05-03T21:03:00.677Z,17.17
2023-05-03T21:05:33.413Z,19.05
2023-05-03T21:08:06.370Z,18.77
2023-05-03T21:10:39.074Z,18.60
2023-05-03T21:13:12.133Z,23.00
2023-05-03T21:15:44.940Z,16.77
2023-05-03T21:18:18.614Z,17.55
2023-05-03T21:20:53.179Z,11.65
2023-05-03T21:23:26.661Z,13.45
2023-05-03T21:25:59.430Z,15.00
2023-05-03T21:28:32.869Z,29.48
2023-05-03T21:31:06.068Z,27.10
2023-05-03T21:33:39.332Z,26.85
2023-05-03T21:36:12.993Z,201.32
2023-05-03T21:38:46.098Z,119.28
2023-05-03T21:41:18.817Z,57.80
2023-05-03T21:43:51.855Z,59.45
2023-05-03T21:46:24.641Z,45.10
2023-05-03T21:48:57.706Z,22.38
2023-05-03T21:51:31.689Z,11.02
2023-05-03T21:54:05.130Z,13.13
2023-05-03T21:56:37.892Z,14.27
2023-05-03T21:59:10.852Z,12.07
2023-05-03T22:01:43.547Z,14.73
2023-05-03T22:04:16.770Z,12.80
2023-05-03T22:06:49.318Z,9.98
2023-05-03T22:09:22.685Z,10.10
2023-05-03T22:11:55.331Z,15.07
2023-05-03T22:14:29.033Z,15.60
2023-05-03T22:17:02.001Z,24.58
2023-05-03T22:19:38.503Z,14.25
2023-05-03T22:22:11.858Z,9.98
2023-05-03T22:24:44.879Z,24.92
2023-05-03T22:27:17.523Z,15.20
2023-05-03T22:29:50.461Z,15.05
2023-05-03T22:32:23.276Z,19.30
2023-05-03T22:34:56.225Z,18.58
2023-05-03T22:37:28.799Z,15.77
2023-05-03T22:40:01.900Z,17.20
2023-05-03T22:42:34.606Z,21.42
2023-05-03T22:45:07.957Z,20.58
2023-05-03T22:47:40.622Z,18.27
2023-05-03T22:50:13.754Z,23.67
2023-05-03T22:52:46.338Z,17.55
2023-05-03T22:55:19.518Z,21.50
2023-05-03T22:57:52.075Z,24.75
2023-05-03T23:00:25.574Z,30.45
2023-05-03T23:02:58.346Z,28.48
2023-05-03T23:05:31.399Z,24.88
2023-05-03T23:08:04.044Z,25.75
2023-05-03T23:10:37.152Z,24.25
2023-05-03T23:13:10.103Z,26.20
2023-05-03T23:15:43.096Z,25.20
2023-05-03T23:18:15.658Z,21.75
2023-05-03T23:20:49.014Z,36.10
2023-05-03T23:23:21.794Z,34.78
2023-05-03T23:25:54.811Z,25.30
2023-05-03T23:28:28.004Z,25.13
2023-05-03T23:31:01.506Z,24.10
2023-05-03T23:33:34.606Z,30.20
2023-05-03T23:36:07.699Z,34.58
2023-05-03T23:38:40.329Z,27.83
2023-05-03T23:41:13.354Z,35.90
2023-05-03T23:43:45.984Z,27.45
2023-05-03T23:46:19.027Z,27.00
2023-05-03T23:48:51.890Z,21.58
2023-05-03T23:51:25.362Z,23.35
2023-05-03T23:53:58.044Z,29.95
2023-05-03T23:56:31.185Z,25.77
2023-05-03T23:59:04.293Z,36.42
